createdAt,value
2022-08-05T00:01:20.986Z,6.68
2022-08-05T00:04:08.321Z,6.80
2022-08-05T00:06:43.321Z,7.32
2022-08-05T00:09:19.852Z,6.80
2022-08-05T00:12:00.023Z,7.60
2022-08-05T00:14:36.695Z,6.60
2022-08-05T00:17:19.502Z,7.55
2022-08-05T00:20:02.634Z,7.40
2022-08-05T00:22:38.209Z,7.65
2022-08-05T00:25:21.377Z,8.15
2022-08-05T00:27:57.231Z,8.48
2022-08-05T00:30:32.054Z,8.55
2022-08-05T00:33:06.971Z,10.33
2022-08-05T00:36:15.223Z,7.28
2022-08-05T00:38:49.039Z,7.10
2022-08-05T00:44:30.706Z,7.85
2022-08-05T00:47:06.903Z,7.00
2022-08-05T00:49:51.674Z,9.60
2022-08-05T00:52:30.042Z,7.25
2022-08-05T00:55:05.359Z,8.73
2022-08-05T00:57:58.569Z,7.03
2022-08-05T01:00:34.452Z,6.60
2022-08-05T01:03:09.381Z,11.20
2022-08-05T01:05:44.276Z,12.25
2022-08-05T01:08:41.698Z,7.78
2022-08-05T01:11:21.889Z,7.45
2022-08-05T01:14:08.848Z,7.95
2022-08-05T01:16:46.929Z,14.25
2022-08-05T01:19:30.422Z,8.63
2022-08-05T01:22:46.969Z,9.30
2022-08-05T01:25:43.320Z,7.25
2022-08-05T01:28:34.282Z,7.50
2022-08-05T01:31:12.909Z,8.25
2022-08-05T01:33:53.473Z,7.68
2022-08-05T01:36:30.278Z,6.88
2022-08-05T01:39:04.672Z,9.00
2022-08-05T01:41:44.442Z,7.78
2022-08-05T01:44:23.157Z,8.48
2022-08-05T01:47:09.849Z,7.20
2022-08-05T01:50:01.494Z,7.43
2022-08-05T01:52:38.343Z,7.55
2022-08-05T01:55:14.976Z,12.40
2022-08-05T01:58:09.944Z,7.73
2022-08-05T02:00:52.360Z,9.88
2022-08-05T02:03:31.970Z,6.78
2022-08-05T02:06:36.980Z,9.65
2022-08-05T02:09:07.804Z,6.97
2022-08-05T02:11:47.018Z,7.20
2022-08-05T02:14:25.184Z,6.90
2022-08-05T02:17:07.421Z,9.60
2022-08-05T02:19:49.279Z,7.50
2022-08-05T02:22:27.441Z,6.57
2022-08-05T02:25:05.055Z,7.20
2022-08-05T02:27:58.378Z,8.38
2022-08-05T02:30:54.099Z,7.25
2022-08-05T02:33:35.935Z,6.10
2022-08-05T02:36:16.685Z,7.55
2022-08-05T02:38:53.515Z,7.73
2022-08-05T02:41:42.806Z,10.82
2022-08-05T02:44:14.350Z,11.95
2022-08-05T02:46:58.453Z,8.00
2022-08-05T02:49:37.734Z,8.38
2022-08-05T02:52:29.354Z,7.75
2022-08-05T02:55:08.581Z,7.97
2022-08-05T02:58:09.833Z,8.90
2022-08-05T03:00:40.334Z,8.68
2022-08-05T03:03:20.345Z,10.05
2022-08-05T03:06:53.942Z,10.07
2022-08-05T03:08:55.888Z,10.32
2022-08-05T03:11:55.096Z,8.03
2022-08-05T03:14:25.055Z,9.77
2022-08-05T03:17:05.059Z,10.55
2022-08-05T03:19:45.727Z,7.65
2022-08-05T03:22:32.202Z,7.50
2022-08-05T03:25:31.586Z,8.50
2022-08-05T03:28:04.330Z,9.55
2022-08-05T03:30:41.186Z,8.40
2022-08-05T03:33:20.408Z,11.98
2022-08-05T03:35:58.375Z,8.77
2022-08-05T03:38:37.387Z,10.75
2022-08-05T03:41:15.452Z,11.15
2022-08-05T03:44:08.167Z,9.80
2022-08-05T03:46:46.986Z,9.38
2022-08-05T03:49:24.105Z,9.50
2022-08-05T03:52:37.323Z,20.97
2022-08-05T03:56:01.329Z,7.68
2022-08-05T03:58:01.089Z,7.40
2022-08-05T04:00:35.284Z,9.95
2022-08-05T04:03:14.820Z,9.65
2022-08-05T04:06:01.043Z,11.93
2022-08-05T04:08:37.990Z,8.63
2022-08-05T04:11:11.358Z,8.20
2022-08-05T04:13:53.413Z,9.23
2022-08-05T04:16:32.451Z,14.50
2022-08-05T04:19:10.649Z,10.07
2022-08-05T04:22:09.390Z,10.20
2022-08-05T04:24:44.173Z,7.47
2022-08-05T04:27:19.155Z,7.20
2022-08-05T04:29:56.722Z,11.77
2022-08-05T04:32:33.415Z,10.07
2022-08-05T04:35:17.703Z,8.95
2022-08-05T04:38:02.724Z,9.88
2022-08-05T04:40:47.924Z,7.77
2022-08-05T04:43:24.507Z,10.25
2022-08-05T04:46:05.118Z,10.18
2022-08-05T04:48:40.152Z,9.88
2022-08-05T04:51:18.519Z,8.30
2022-08-05T04:53:57.973Z,10.30
2022-08-05T04:56:37.286Z,8.77
2022-08-05T04:59:22.151Z,13.60
2022-08-05T05:02:36.283Z,7.53
2022-08-05T05:05:17.002Z,9.52
2022-08-05T05:08:02.015Z,8.10
2022-08-05T05:10:55.776Z,13.25
2022-08-05T05:13:32.380Z,8.65
2022-08-05T05:16:19.786Z,10.70
2022-08-05T05:19:17.784Z,9.45
2022-08-05T05:21:52.494Z,10.27
2022-08-05T05:24:58.399Z,11.52
2022-08-05T05:27:24.790Z,7.90
2022-08-05T05:30:31.341Z,9.40
2022-08-05T05:33:17.169Z,8.13
2022-08-05T05:35:55.499Z,7.13
2022-08-05T05:38:32.526Z,9.48
2022-08-05T05:41:08.662Z,10.40
2022-08-05T05:43:57.193Z,10.20
2022-08-05T05:46:33.929Z,9.45
2022-08-05T05:49:23.148Z,12.50
2022-08-05T05:52:05.918Z,14.65
2022-08-05T05:54:50.255Z,9.07
2022-08-05T05:57:25.970Z,7.65
2022-08-05T06:00:19.987Z,11.85
2022-08-05T06:02:54.774Z,10.02
2022-08-05T06:05:29.510Z,9.98
2022-08-05T06:08:10.696Z,7.55
2022-08-05T06:10:49.147Z,7.43
2022-08-05T06:13:27.354Z,11.88
2022-08-05T06:16:29.029Z,8.95
2022-08-05T06:19:07.352Z,11.45
2022-08-05T06:21:49.641Z,12.38
2022-08-05T06:24:27.467Z,11.45
2022-08-05T06:27:02.291Z,9.48
2022-08-05T06:29:46.908Z,11.02
2022-08-05T06:32:29.079Z,12.90
2022-08-05T06:35:15.476Z,9.90
2022-08-05T06:38:11.348Z,9.85
2022-08-05T06:40:49.390Z,10.98
2022-08-05T06:43:59.723Z,15.10
2022-08-05T06:46:20.796Z,9.32
2022-08-05T06:48:58.986Z,9.75
2022-08-05T06:51:35.411Z,9.80
2022-08-05T06:54:19.290Z,8.32
2022-08-05T06:58:03.355Z,8.40
2022-08-05T07:00:01.585Z,7.88
2022-08-05T07:02:37.816Z,13.18
2022-08-05T07:05:20.061Z,9.00
2022-08-05T07:07:57.242Z,11.93
2022-08-05T07:10:36.051Z,9.68
2022-08-05T07:13:46.356Z,8.00
2022-08-05T07:18:01.977Z,8.98
2022-08-05T07:20:16.686Z,9.13
2022-08-05T07:22:27.793Z,12.25
2022-08-05T07:25:22.994Z,9.10
2022-08-05T07:28:05.917Z,8.80
2022-08-05T07:30:50.461Z,8.00
2022-08-05T07:33:37.168Z,8.00
2022-08-05T07:36:20.901Z,7.40
2022-08-05T07:38:56.887Z,13.85
2022-08-05T07:42:12.961Z,12.02
2022-08-05T07:44:26.115Z,12.50
2022-08-05T07:47:10.156Z,7.68
2022-08-05T07:49:54.651Z,13.50
2022-08-05T07:52:30.717Z,9.85
2022-08-05T07:55:44.456Z,11.55
2022-08-05T07:58:03.245Z,7.95
2022-08-05T08:00:39.972Z,10.43
2022-08-05T08:03:17.778Z,6.75
2022-08-05T08:05:57.177Z,14.05
2022-08-05T08:08:33.152Z,9.05
2022-08-05T08:14:00.785Z,8.55
2022-08-05T08:16:51.183Z,8.05
2022-08-05T08:20:10.719Z,9.77
2022-08-05T08:22:29.796Z,14.93
2022-08-05T08:25:15.743Z,8.48
2022-08-05T08:27:51.767Z,12.80
2022-08-05T08:30:40.886Z,9.48
2022-08-05T08:36:37.510Z,5.70
2022-08-05T08:38:58.662Z,6.25
2022-08-05T08:41:51.092Z,7.05
2022-08-05T08:45:17.127Z,7.63
2022-08-05T08:48:06.656Z,9.55
2022-08-05T08:50:31.131Z,10.95
2022-08-05T08:53:19.766Z,6.35
2022-08-05T08:56:03.731Z,8.05
2022-08-05T08:58:47.458Z,6.50
2022-08-05T09:01:24.775Z,7.72
2022-08-05T09:04:00.737Z,4.70
2022-08-05T09:06:36.901Z,5.28
2022-08-05T09:09:14.584Z,7.68
2022-08-05T09:11:50.955Z,8.75
2022-08-05T09:14:56.816Z,6.90
2022-08-05T09:17:40.516Z,4.80
2022-08-05T09:20:36.243Z,5.20
2022-08-05T09:23:18.821Z,6.18
2022-08-05T09:26:10.908Z,5.38
2022-08-05T09:28:56.498Z,7.63
2022-08-05T09:32:41.002Z,5.32
2022-08-05T09:34:27.036Z,9.03
2022-08-05T09:37:01.978Z,8.25
2022-08-05T09:39:45.723Z,5.75
2022-08-05T09:42:28.402Z,7.05
2022-08-05T09:45:17.625Z,8.00
2022-08-05T09:48:04.297Z,8.95
2022-08-05T09:50:44.866Z,6.63
2022-08-05T09:53:25.782Z,6.43
2022-08-05T09:56:12.843Z,6.55
2022-08-05T09:59:00.433Z,5.18
2022-08-05T10:01:45.799Z,6.30
2022-08-05T10:04:28.521Z,7.35
2022-08-05T10:07:21.060Z,8.35
2022-08-05T10:10:13.738Z,5.50
2022-08-05T10:12:50.675Z,4.15
2022-08-05T10:15:29.868Z,6.45
2022-08-05T10:18:14.394Z,6.13
2022-08-05T10:20:52.998Z,8.65
2022-08-05T10:23:50.909Z,5.50
2022-08-05T10:26:31.544Z,3.97
2022-08-05T10:29:06.731Z,4.18
2022-08-05T10:32:53.843Z,4.38
2022-08-05T10:34:42.712Z,4.95
2022-08-05T10:37:26.708Z,5.10
2022-08-05T10:40:28.124Z,3.38
2022-08-05T10:43:12.907Z,6.95
2022-08-05T10:45:56.603Z,4.87
2022-08-05T10:48:56.656Z,10.63
2022-08-05T10:51:57.577Z,4.20
2022-08-05T10:54:56.122Z,5.65
2022-08-05T10:57:32.073Z,4.15
2022-08-05T11:00:18.600Z,7.43
2022-08-05T11:03:25.950Z,4.03
2022-08-05T11:06:15.558Z,2.83
2022-08-05T11:08:51.529Z,5.53
2022-08-05T11:11:52.751Z,5.57
2022-08-05T11:14:49.355Z,3.80
2022-08-05T11:17:57.194Z,5.20
2022-08-05T11:20:38.947Z,4.93
2022-08-05T11:24:03.875Z,4.25
2022-08-05T11:26:33.527Z,3.75
2022-08-05T11:29:14.334Z,4.07
2022-08-05T11:31:56.417Z,3.83
2022-08-05T11:34:51.969Z,5.07
2022-08-05T11:38:29.891Z,3.95
2022-08-05T11:40:40.690Z,7.35
2022-08-05T11:44:06.575Z,7.70
2022-08-05T11:46:32.808Z,8.65
2022-08-05T11:49:10.113Z,5.78
2022-08-05T11:51:49.474Z,3.33
2022-08-05T11:54:33.471Z,2.60
2022-08-05T11:57:24.234Z,4.15
2022-08-05T12:00:00.677Z,5.18
2022-08-05T12:05:17.797Z,4.72
2022-08-05T12:08:07.567Z,3.50
2022-08-05T12:10:46.293Z,3.67
2022-08-05T12:13:47.547Z,3.35
2022-08-05T12:16:27.022Z,2.20
2022-08-05T12:19:08.357Z,2.83
2022-08-05T12:21:48.172Z,3.03
2022-08-05T12:24:24.647Z,2.50
2022-08-05T12:27:00.085Z,3.38
2022-08-05T12:29:45.133Z,3.40
2022-08-05T12:32:32.274Z,2.80
2022-08-05T12:35:10.423Z,3.03
2022-08-05T12:37:45.101Z,10.80
2022-08-05T12:40:26.802Z,3.60
2022-08-05T12:43:06.647Z,5.30
2022-08-05T12:45:49.659Z,2.33
2022-08-05T12:48:32.300Z,3.45
2022-08-05T12:52:10.685Z,3.95
2022-08-05T12:54:16.923Z,4.47
2022-08-05T12:56:59.847Z,2.88
2022-08-05T13:00:08.655Z,3.17
2022-08-05T13:02:32.281Z,4.00
2022-08-05T13:05:12.487Z,3.55
2022-08-05T13:07:59.686Z,4.68
2022-08-05T13:10:35.594Z,3.92
2022-08-05T13:14:06.132Z,3.28
2022-08-05T13:16:25.146Z,4.00
2022-08-05T13:19:01.759Z,9.60
2022-08-05T13:21:38.015Z,4.40
2022-08-05T13:24:31.323Z,2.83
2022-08-05T13:27:37.489Z,4.15
2022-08-05T13:30:33.536Z,3.42
2022-08-05T13:33:06.424Z,3.45
2022-08-05T13:35:50.410Z,2.50
2022-08-05T13:41:09.325Z,2.58
2022-08-05T13:43:54.907Z,4.35
2022-08-05T13:46:50.597Z,2.80
2022-08-05T13:49:23.386Z,2.25
2022-08-05T13:51:57.670Z,2.57
2022-08-05T13:54:32.799Z,2.58
2022-08-05T13:57:10.797Z,4.30
2022-08-05T13:59:57.296Z,2.30
2022-08-05T14:02:34.665Z,2.20
2022-08-05T14:05:19.404Z,2.45
2022-08-05T14:08:11.372Z,4.45
2022-08-05T14:11:03.439Z,2.00
2022-08-05T14:13:55.093Z,4.65
2022-08-05T14:16:33.352Z,2.10
2022-08-05T14:19:11.216Z,5.40
2022-08-05T14:24:40.304Z,3.07
2022-08-05T14:27:28.239Z,5.13
2022-08-05T14:30:20.429Z,4.43
2022-08-05T14:32:56.765Z,2.20
2022-08-05T14:35:37.103Z,2.03
2022-08-05T14:38:31.935Z,5.03
2022-08-05T14:41:09.201Z,3.50
2022-08-05T14:44:00.145Z,2.42
2022-08-05T14:46:42.700Z,6.55
2022-08-05T14:49:19.395Z,2.22
2022-08-05T14:51:55.733Z,2.88
2022-08-05T14:54:33.843Z,3.97
2022-08-05T14:57:09.694Z,4.30
2022-08-05T14:59:46.558Z,6.95
2022-08-05T15:02:26.846Z,3.63
2022-08-05T15:05:08.736Z,3.72
2022-08-05T15:08:11.379Z,2.42
2022-08-05T15:10:47.017Z,1.73
2022-08-05T15:13:44.846Z,3.60
2022-08-05T15:16:18.859Z,1.80
2022-08-05T15:18:57.157Z,2.75
2022-08-05T15:21:35.813Z,6.05
2022-08-05T15:26:46.090Z,5.60
2022-08-05T15:29:29.742Z,5.10
2022-08-05T15:32:08.305Z,4.80
2022-08-05T15:34:45.648Z,3.53
2022-08-05T15:38:33.466Z,8.30
2022-08-05T15:40:58.404Z,2.58
2022-08-05T15:43:20.039Z,4.67
2022-08-05T15:46:00.161Z,2.75
2022-08-05T15:48:34.633Z,2.80
2022-08-05T15:51:12.784Z,3.25
2022-08-05T15:53:50.930Z,2.92
2022-08-05T15:56:30.628Z,2.13
2022-08-05T15:59:05.878Z,2.92
2022-08-05T16:01:40.687Z,2.40
2022-08-05T16:04:27.734Z,3.03
2022-08-05T16:07:06.154Z,3.45
2022-08-05T16:09:45.723Z,3.45
2022-08-05T16:12:23.809Z,3.03
2022-08-05T16:14:59.309Z,1.92
2022-08-05T16:17:35.294Z,5.68
2022-08-05T16:20:11.621Z,3.47
2022-08-05T16:22:49.923Z,5.13
2022-08-05T16:25:34.204Z,5.97
2022-08-05T16:28:10.388Z,5.75
2022-08-05T16:30:45.578Z,6.70
2022-08-05T16:33:21.690Z,7.03
2022-08-05T16:35:56.415Z,6.60
2022-08-05T16:38:33.605Z,10.43
2022-08-05T16:42:12.289Z,6.22
2022-08-05T16:44:01.662Z,5.20
2022-08-05T16:46:34.753Z,10.45
2022-08-05T16:49:12.877Z,8.57
